sensor_id;sensor_type;location;lat;lon;timestamp;pressure;altitude;pressure_sealevel;temperature;humidity
52291;BME280;39663;45.432;28.050;2023-02-21T00:00:25;100777.75;;;10.46;35.89
52291;BME280;39663;45.432;28.050;2023-02-21T00:00:57;100784.80;;;10.23;35.76
52291;BME280;39663;45.432;28.050;2023-02-21T00:01:29;100788.03;;;10.22;36.36
52291;BME280;39663;45.432;28.050;2023-02-21T00:02:00;100788.58;;;9.96;35.93
52291;BME280;39663;45.432;28.050;2023-02-21T00:02:32;100791.96;;;9.13;37.00
52291;BME280;39663;45.432;28.050;2023-02-21T00:03:04;100784.12;;;9.76;37.40
52291;BME280;39663;45.432;28.050;2023-02-21T00:03:36;100782.97;;;9.57;37.53
52291;BME280;39663;45.432;28.050;2023-02-21T00:04:07;100775.30;;;9.98;36.91
52291;BME280;39663;45.432;28.050;2023-02-21T00:04:39;100772.74;;;10.08;37.24
52291;BME280;39663;45.432;28.050;2023-02-21T00:05:10;100769.48;;;10.19;36.94
52291;BME280;39663;45.432;28.050;2023-02-21T00:05:42;100770.10;;;10.38;36.40
52291;BME280;39663;45.432;28.050;2023-02-21T00:06:14;100767.33;;;10.45;37.20
52291;BME280;39663;45.432;28.050;2023-02-21T00:06:45;100764.53;;;10.58;36.69
52291;BME280;39663;45.432;28.050;2023-02-21T00:07:17;100760.32;;;10.60;37.05
52291;BME280;39663;45.432;28.050;2023-02-21T00:07:49;100756.02;;;10.67;36.11
52291;BME280;39663;45.432;28.050;2023-02-21T00:08:21;100753.00;;;10.87;37.31
52291;BME280;39663;45.432;28.050;2023-02-21T00:08:52;100755.79;;;10.40;35.80
52291;BME280;39663;45.432;28.050;2023-02-21T00:09:24;100756.37;;;10.30;37.52
52291;BME280;39663;45.432;28.050;2023-02-21T00:09:55;100752.04;;;10.63;37.46
52291;BME280;39663;45.432;28.050;2023-02-21T00:10:27;100756.92;;;10.50;36.02
52291;BME280;39663;45.432;28.050;2023-02-21T00:10:59;100760.52;;;10.24;36.28
52291;BME280;39663;45.432;28.050;2023-02-21T00:11:30;100757.24;;;10.48;36.73
52291;BME280;39663;45.432;28.050;2023-02-21T00:12:02;100763.46;;;10.39;35.53
52291;BME280;39663;45.432;28.050;2023-02-21T00:12:33;100764.68;;;10.39;36.48
52291;BME280;39663;45.432;28.050;2023-02-21T00:13:05;100766.59;;;10.45;36.74
52291;BME280;39663;45.432;28.050;2023-02-21T00:13:37;100770.45;;;10.15;35.74
52291;BME280;39663;45.432;28.050;2023-02-21T00:14:09;100771.99;;;10.18;36.66
52291;BME280;39663;45.432;28.050;2023-02-21T00:14:41;100769.30;;;10.18;36.99
52291;BME280;39663;45.432;28.050;2023-02-21T00:15:12;100776.65;;;10.27;36.75
52291;BME280;39663;45.432;28.050;2023-02-21T00:15:44;100776.46;;;10.13;37.22
52291;BME280;39663;45.432;28.050;2023-02-21T00:16:16;100776.22;;;10.22;37.51
52291;BME280;39663;45.432;28.050;2023-02-21T00:16:48;100772.60;;;10.32;37.33
52291;BME280;39663;45.432;28.050;2023-02-21T00:17:19;100772.24;;;10.22;36.12
52291;BME280;39663;45.432;28.050;2023-02-21T00:17:51;100769.86;;;10.12;36.41
52291;BME280;39663;45.432;28.050;2023-02-21T00:18:23;100760.32;;;9.79;37.72
52291;BME280;39663;45.432;28.050;2023-02-21T00:18:54;100760.25;;;9.86;37.31
52291;BME280;39663;45.432;28.050;2023-02-21T00:19:26;100758.65;;;9.72;37.56
52291;BME280;39663;45.432;28.050;2023-02-21T00:19:57;100759.26;;;9.71;37.27
52291;BME280;39663;45.432;28.050;2023-02-21T00:20:29;100754.28;;;10.01;38.62
52291;BME280;39663;45.432;28.050;2023-02-21T00:21:00;100756.46;;;9.88;38.21
52291;BME280;39663;45.432;28.050;2023-02-21T00:21:32;100754.77;;;9.93;38.01
52291;BME280;39663;45.432;28.050;2023-02-21T00:22:03;100755.65;;;10.01;37.14
52291;BME280;39663;45.432;28.050;2023-02-21T00:22:35;100758.39;;;9.82;36.92
52291;BME280;39663;45.432;28.050;2023-02-21T00:23:06;100757.65;;;9.76;37.08
52291;BME280;39663;45.432;28.050;2023-02-21T00:23:38;100761.47;;;9.64;38.91
52291;BME280;39663;45.432;28.050;2023-02-21T00:24:13;100758.23;;;9.52;37.39
52291;BME280;39663;45.432;28.050;2023-02-21T00:24:44;100756.79;;;10.10;38.05
52291;BME280;39663;45.432;28.050;2023-02-21T00:25:16;100759.48;;;9.22;38.32
52291;BME280;39663;45.432;28.050;2023-02-21T00:25:48;100760.32;;;9.54;38.51
52291;BME280;39663;45.432;28.050;2023-02-21T00:26:20;100755.60;;;9.98;38.09
52291;BME280;39663;45.432;28.050;2023-02-21T00:26:52;100760.31;;;9.83;38.65
52291;BME280;39663;45.432;28.050;2023-02-21T00:27:25;100761.38;;;9.99;38.20
52291;BME280;39663;45.432;28.050;2023-02-21T00:27:59;100756.99;;;10.02;38.39
52291;BME280;39663;45.432;28.050;2023-02-21T00:28:31;100755.40;;;9.98;36.74
52291;BME280;39663;45.432;28.050;2023-02-21T00:29:03;100753.99;;;9.79;37.47
52291;BME280;39663;45.432;28.050;2023-02-21T00:29:35;100752.22;;;9.93;36.88
52291;BME280;39663;45.432;28.050;2023-02-21T00:30:08;100753.49;;;9.98;37.51
52291;BME280;39663;45.432;28.050;2023-02-21T00:30:40;100749.75;;;9.92;37.62
52291;BME280;39663;45.432;28.050;2023-02-21T00:31:11;100748.37;;;10.02;36.68
52291;BME280;39663;45.432;28.050;2023-02-21T00:31:43;100745.84;;;9.86;38.75
52291;BME280;39663;45.432;28.050;2023-02-21T00:32:15;100750.05;;;9.39;37.48
52291;BME280;39663;45.432;28.050;2023-02-21T00:32:46;100752.15;;;9.67;38.55
52291;BME280;39663;45.432;28.050;2023-02-21T00:33:18;100751.30;;;9.88;37.14
52291;BME280;39663;45.432;28.050;2023-02-21T00:33:49;100758.68;;;8.50;38.40
52291;BME280;39663;45.432;28.050;2023-02-21T00:34:21;100754.81;;;9.02;38.16
52291;BME280;39663;45.432;28.050;2023-02-21T00:34:53;100754.42;;;9.05;38.24
52291;BME280;39663;45.432;28.050;2023-02-21T00:35:24;100750.54;;;9.60;39.13
52291;BME280;39663;45.432;28.050;2023-02-21T00:35:56;100751.32;;;9.80;38.32
52291;BME280;39663;45.432;28.050;2023-02-21T00:36:27;100745.43;;;9.88;37.28
52291;BME280;39663;45.432;28.050;2023-02-21T00:36:59;100741.95;;;9.89;38.19
52291;BME280;39663;45.432;28.050;2023-02-21T00:37:30;100741.28;;;9.54;37.14
52291;BME280;39663;45.432;28.050;2023-02-21T00:38:02;100743.48;;;9.53;37.45
52291;BME280;39663;45.432;28.050;2023-02-21T00:38:36;100741.43;;;10.01;37.25
52291;BME280;39663;45.432;28.050;2023-02-21T00:39:08;100738.69;;;9.81;37.83
52291;BME280;39663;45.432;28.050;2023-02-21T00:39:39;100738.37;;;9.73;37.70
52291;BME280;39663;45.432;28.050;2023-02-21T00:40:12;100737.75;;;9.74;37.60
52291;BME280;39663;45.432;28.050;2023-02-21T00:40:45;100738.10;;;10.00;36.55
52291;BME280;39663;45.432;28.050;2023-02-21T00:41:16;100739.49;;;10.16;37.70
52291;BME280;39663;45.432;28.050;2023-02-21T00:41:48;100742.90;;;9.86;36.87
52291;BME280;39663;45.432;28.050;2023-02-21T00:42:19;100746.79;;;9.43;36.78
52291;BME280;39663;45.432;28.050;2023-02-21T00:42:51;100743.46;;;9.52;37.58
52291;BME280;39663;45.432;28.050;2023-02-21T00:43:27;100742.98;;;9.75;38.11
52291;BME280;39663;45.432;28.050;2023-02-21T00:43:59;100749.26;;;9.74;36.98
52291;BME280;39663;45.432;28.050;2023-02-21T00:44:31;100750.65;;;9.64;37.45
52291;BME280;39663;45.432;28.050;2023-02-21T00:45:03;100751.31;;;9.79;37.32
52291;BME280;39663;45.432;28.050;2023-02-21T00:45:34;100749.70;;;9.81;37.60
52291;BME280;39663;45.432;28.050;2023-02-21T00:46:06;100743.65;;;9.53;37.46
52291;BME280;39663;45.432;28.050;2023-02-21T00:46:37;100743.33;;;9.65;36.86
52291;BME280;39663;45.432;28.050;2023-02-21T00:47:09;100743.10;;;9.83;38.37
52291;BME280;39663;45.432;28.050;2023-02-21T00:47:40;100741.73;;;9.87;37.57
52291;BME280;39663;45.432;28.050;2023-02-21T00:48:12;100741.94;;;9.54;37.48
52291;BME280;39663;45.432;28.050;2023-02-21T00:48:44;100742.56;;;9.62;37.56
52291;BME280;39663;45.432;28.050;2023-02-21T00:49:15;100740.42;;;9.84;37.28
52291;BME280;39663;45.432;28.050;2023-02-21T00:49:47;100734.81;;;9.84;37.87
52291;BME280;39663;45.432;28.050;2023-02-21T00:50:18;100730.97;;;9.77;37.64
52291;BME280;39663;45.432;28.050;2023-02-21T00:50:50;100731.05;;;9.72;37.62
52291;BME280;39663;45.432;28.050;2023-02-21T00:51:22;100729.93;;;9.82;37.53
52291;BME280;39663;45.432;28.050;2023-02-21T00:51:53;100728.63;;;10.02;37.92
52291;BME280;39663;45.432;28.050;2023-02-21T00:52:25;100728.34;;;9.91;37.20
52291;BME280;39663;45.432;28.050;2023-02-21T00:52:57;100726.83;;;9.76;38.06
52291;BME280;39663;45.432;28.050;2023-02-21T00:53:28;100723.20;;;9.74;37.21
52291;BME280;39663;45.432;28.050;2023-02-21T00:54:00;100718.02;;;9.82;37.05
52291;BME280;39663;45.432;28.050;2023-02-21T00:54:32;100717.88;;;9.80;37.90
52291;BME280;39663;45.432;28.050;2023-02-21T00:55:04;100717.00;;;9.85;37.80
52291;BME280;39663;45.432;28.050;2023-02-21T00:55:36;100718.71;;;9.80;37.72
52291;BME280;39663;45.432;28.050;2023-02-21T00:56:07;100720.01;;;9.86;38.59
52291;BME280;39663;45.432;28.050;2023-02-21T00:56:39;100718.33;;;10.39;38.02
52291;BME280;39663;45.432;28.050;2023-02-21T00:57:10;100718.22;;;10.01;36.94
52291;BME280;39663;45.432;28.050;2023-02-21T00:57:42;100716.04;;;10.24;37.61
52291;BME280;39663;45.432;28.050;2023-02-21T00:58:14;100715.05;;;10.05;38.44
52291;BME280;39663;45.432;28.050;2023-02-21T00:58:45;100715.18;;;10.09;37.50
52291;BME280;39663;45.432;28.050;2023-02-21T00:59:17;100711.91;;;9.96;36.27
52291;BME280;39663;45.432;28.050;2023-02-21T00:59:48;100712.78;;;9.96;38.23
52291;BME280;39663;45.432;28.050;2023-02-21T01:00:22;100712.96;;;10.44;37.26
52291;BME280;39663;45.432;28.050;2023-02-21T01:00:54;100708.92;;;10.08;38.82
52291;BME280;39663;45.432;28.050;2023-02-21T01:01:25;100711.26;;;10.40;38.33
52291;BME280;39663;45.432;28.050;2023-02-21T01:01:57;100708.58;;;10.12;37.86
52291;BME280;39663;45.432;28.050;2023-02-21T01:02:28;100708.29;;;10.24;37.55
52291;BME280;39663;45.432;28.050;2023-02-21T01:03:00;100710.89;;;10.10;37.54
52291;BME280;39663;45.432;28.050;2023-02-21T01:03:32;100710.02;;;10.25;38.72
52291;BME280;39663;45.432;28.050;2023-02-21T01:04:03;100713.99;;;10.31;38.66
52291;BME280;39663;45.432;28.050;2023-02-21T01:04:35;100716.30;;;10.09;36.62
52291;BME280;39663;45.432;28.050;2023-02-21T01:05:07;100719.60;;;10.20;38.25
52291;BME280;39663;45.432;28.050;2023-02-21T01:05:38;100720.24;;;10.32;37.86
52291;BME280;39663;45.432;28.050;2023-02-21T01:06:11;100718.36;;;10.36;37.69
52291;BME280;39663;45.432;28.050;2023-02-21T01:06:42;100713.81;;;10.53;36.81
52291;BME280;39663;45.432;28.050;2023-02-21T01:07:14;100711.01;;;10.42;36.56
52291;BME280;39663;45.432;28.050;2023-02-21T01:07:46;100705.50;;;10.39;37.81
52291;BME280;39663;45.432;28.050;2023-02-21T01:08:17;100698.00;;;10.47;36.97
52291;BME280;39663;45.432;28.050;2023-02-21T01:08:49;100696.00;;;10.39;36.42
52291;BME280;39663;45.432;28.050;2023-02-21T01:09:21;100697.63;;;10.66;37.34
52291;BME280;39663;45.432;28.050;2023-02-21T01:09:52;100702.77;;;10.44;37.28
52291;BME280;39663;45.432;28.050;2023-02-21T01:10:24;100709.05;;;10.53;36.56
52291;BME280;39663;45.432;28.050;2023-02-21T01:10:55;100707.17;;;10.52;38.36
52291;BME280;39663;45.432;28.050;2023-02-21T01:11:28;100707.92;;;10.42;35.52
52291;BME280;39663;45.432;28.050;2023-02-21T01:11:59;100704.43;;;10.29;38.58
52291;BME280;39663;45.432;28.050;2023-02-21T01:12:31;100702.23;;;10.39;38.41
52291;BME280;39663;45.432;28.050;2023-02-21T01:13:03;100703.89;;;10.39;38.77
52291;BME280;39663;45.432;28.050;2023-02-21T01:13:35;100707.90;;;10.03;36.57
52291;BME280;39663;45.432;28.050;2023-02-21T01:14:07;100713.04;;;10.20;35.69
52291;BME280;39663;45.432;28.050;2023-02-21T01:14:38;100715.23;;;10.26;37.12
52291;BME280;39663;45.432;28.050;2023-02-21T01:15:10;100711.26;;;10.30;38.28
52291;BME280;39663;45.432;28.050;2023-02-21T01:15:42;100713.69;;;10.17;37.94
52291;BME280;39663;45.432;28.050;2023-02-21T01:16:13;100715.31;;;10.40;36.84
52291;BME280;39663;45.432;28.050;2023-02-21T01:16:45;100717.72;;;10.55;37.23
52291;BME280;39663;45.432;28.050;2023-02-21T01:17:17;100716.71;;;10.12;37.86
52291;BME280;39663;45.432;28.050;2023-02-21T01:17:48;100714.09;;;9.81;37.22
52291;BME280;39663;45.432;28.050;2023-02-21T01:18:20;100717.57;;;10.00;36.99
52291;BME280;39663;45.432;28.050;2023-02-21T01:18:52;100715.44;;;10.11;37.10
52291;BME280;39663;45.432;28.050;2023-02-21T01:19:26;100716.13;;;10.00;36.97
52291;BME280;39663;45.432;28.050;2023-02-21T01:20:00;100715.89;;;9.76;36.31
52291;BME280;39663;45.432;28.050;2023-02-21T01:20:32;100713.20;;;10.08;36.59
52291;BME280;39663;45.432;28.050;2023-02-21T01:21:04;100709.68;;;9.90;38.20
52291;BME280;39663;45.432;28.050;2023-02-21T01:21:35;100703.81;;;10.29;37.17
52291;BME280;39663;45.432;28.050;2023-02-21T01:22:07;100701.33;;;10.36;38.25
52291;BME280;39663;45.432;28.050;2023-02-21T01:22:38;100699.08;;;10.47;36.17
52291;BME280;39663;45.432;28.050;2023-02-21T01:23:10;100699.82;;;10.05;37.36
52291;BME280;39663;45.432;28.050;2023-02-21T01:23:42;100695.97;;;9.48;35.35
52291;BME280;39663;45.432;28.050;2023-02-21T01:24:15;100696.46;;;9.66;37.08
52291;BME280;39663;45.432;28.050;2023-02-21T01:24:48;100697.82;;;9.86;37.13
52291;BME280;39663;45.432;28.050;2023-02-21T01:25:20;100699.60;;;10.10;36.68
52291;BME280;39663;45.432;28.050;2023-02-21T01:25:52;100698.66;;;10.33;37.51
52291;BME280;39663;45.432;28.050;2023-02-21T01:26:24;100695.96;;;10.64;35.10
52291;BME280;39663;45.432;28.050;2023-02-21T01:26:55;100699.05;;;10.31;36.63
52291;BME280;39663;45.432;28.050;2023-02-21T01:27:27;100697.59;;;10.62;35.38
52291;BME280;39663;45.432;28.050;2023-02-21T01:27:59;100695.48;;;10.54;35.59
52291;BME280;39663;45.432;28.050;2023-02-21T01:28:31;100694.94;;;10.52;35.20
52291;BME280;39663;45.432;28.050;2023-02-21T01:29:02;100692.79;;;10.46;36.27
52291;BME280;39663;45.432;28.050;2023-02-21T01:29:34;100693.40;;;10.37;36.36
52291;BME280;39663;45.432;28.050;2023-02-21T01:30:07;100692.45;;;10.26;35.28
52291;BME280;39663;45.432;28.050;2023-02-21T01:30:39;100697.05;;;10.05;35.95
52291;BME280;39663;45.432;28.050;2023-02-21T01:31:15;100697.83;;;10.01;37.00
52291;BME280;39663;45.432;28.050;2023-02-21T01:31:48;100700.55;;;9.53;36.23
52291;BME280;39663;45.432;28.050;2023-02-21T01:32:20;100699.10;;;9.26;37.61
52291;BME280;39663;45.432;28.050;2023-02-21T01:32:51;100699.69;;;9.50;38.01
52291;BME280;39663;45.432;28.050;2023-02-21T01:33:23;100698.53;;;9.77;37.86
52291;BME280;39663;45.432;28.050;2023-02-21T01:33:55;100698.25;;;9.64;36.45
52291;BME280;39663;45.432;28.050;2023-02-21T01:34:26;100698.42;;;9.30;38.44
52291;BME280;39663;45.432;28.050;2023-02-21T01:34:58;100698.56;;;9.41;37.84
52291;BME280;39663;45.432;28.050;2023-02-21T01:35:30;100693.53;;;9.29;37.68
52291;BME280;39663;45.432;28.050;2023-02-21T01:36:04;100697.44;;;8.96;37.25
52291;BME280;39663;45.432;28.050;2023-02-21T01:36:39;100694.19;;;9.10;39.47
52291;BME280;39663;45.432;28.050;2023-02-21T01:37:10;100685.63;;;9.48;37.48
52291;BME280;39663;45.432;28.050;2023-02-21T01:37:42;100689.79;;;8.91;38.10
52291;BME280;39663;45.432;28.050;2023-02-21T01:38:14;100686.20;;;8.86;38.58
52291;BME280;39663;45.432;28.050;2023-02-21T01:38:45;100685.07;;;9.17;37.66
52291;BME280;39663;45.432;28.050;2023-02-21T01:39:17;100683.04;;;8.87;39.19
52291;BME280;39663;45.432;28.050;2023-02-21T01:39:48;100684.53;;;9.01;39.02
52291;BME280;39663;45.432;28.050;2023-02-21T01:40:20;100683.82;;;9.38;38.49
52291;BME280;39663;45.432;28.050;2023-02-21T01:40:52;100687.55;;;9.42;38.58
52291;BME280;39663;45.432;28.050;2023-02-21T01:41:23;100687.83;;;9.25;38.34
52291;BME280;39663;45.432;28.050;2023-02-21T01:41:56;100684.98;;;9.71;39.27
52291;BME280;39663;45.432;28.050;2023-02-21T01:42:27;100685.13;;;9.47;39.08
52291;BME280;39663;45.432;28.050;2023-02-21T01:42:59;100683.88;;;9.59;37.70
52291;BME280;39663;45.432;28.050;2023-02-21T01:43:31;100683.45;;;9.47;38.59
52291;BME280;39663;45.432;28.050;2023-02-21T01:44:05;100684.78;;;9.70;37.84
52291;BME280;39663;45.432;28.050;2023-02-21T01:44:38;100683.04;;;9.92;37.53
52291;BME280;39663;45.432;28.050;2023-02-21T01:45:40;100680.05;;;10.27;38.50
52291;BME280;39663;45.432;28.050;2023-02-21T01:46:15;100680.64;;;10.03;38.73
52291;BME280;39663;45.432;28.050;2023-02-21T01:46:47;100680.11;;;10.34;38.22
52291;BME280;39663;45.432;28.050;2023-02-21T01:47:20;100682.12;;;10.10;37.84
52291;BME280;39663;45.432;28.050;2023-02-21T01:47:52;100682.78;;;9.98;37.84
52291;BME280;39663;45.432;28.050;2023-02-21T01:48:25;100680.35;;;9.77;36.79
52291;BME280;39663;45.432;28.050;2023-02-21T01:48:58;100683.51;;;9.88;39.16
52291;BME280;39663;45.432;28.050;2023-02-21T01:49:32;100687.93;;;10.03;37.41
52291;BME280;39663;45.432;28.050;2023-02-21T01:50:13;100687.95;;;9.61;37.58
52291;BME280;39663;45.432;28.050;2023-02-21T01:50:46;100693.87;;;9.86;37.40
52291;BME280;39663;45.432;28.050;2023-02-21T01:51:22;100694.60;;;9.62;38.47
52291;BME280;39663;45.432;28.050;2023-02-21T01:51:55;100701.66;;;9.64;38.13
52291;BME280;39663;45.432;28.050;2023-02-21T01:52:28;100703.54;;;9.55;37.20
52291;BME280;39663;45.432;28.050;2023-02-21T01:53:00;100706.91;;;9.00;37.60
52291;BME280;39663;45.432;28.050;2023-02-21T01:53:34;100704.38;;;9.06;38.03
52291;BME280;39663;45.432;28.050;2023-02-21T01:54:06;100704.42;;;8.85;39.06
52291;BME280;39663;45.432;28.050;2023-02-21T01:54:43;100702.18;;;8.73;38.84
52291;BME280;39663;45.432;28.050;2023-02-21T01:55:17;100702.84;;;8.10;38.87
52291;BME280;39663;45.432;28.050;2023-02-21T01:55:48;100700.22;;;7.69;39.26
52291;BME280;39663;45.432;28.050;2023-02-21T01:56:20;100705.11;;;7.78;40.37
52291;BME280;39663;45.432;28.050;2023-02-21T01:56:54;100704.46;;;8.15;40.27
52291;BME280;39663;45.432;28.050;2023-02-21T01:57:26;100702.59;;;7.69;39.53
52291;BME280;39663;45.432;28.050;2023-02-21T01:57:58;100700.24;;;8.06;38.86
52291;BME280;39663;45.432;28.050;2023-02-21T01:58:31;100700.34;;;7.49;39.46
52291;BME280;39663;45.432;28.050;2023-02-21T01:59:09;100700.54;;;7.65;39.36
52291;BME280;39663;45.432;28.050;2023-02-21T01:59:41;100701.01;;;7.69;39.27
52291;BME280;39663;45.432;28.050;2023-02-21T02:00:16;100699.20;;;7.63;40.50
52291;BME280;39663;45.432;28.050;2023-02-21T02:00:48;100699.22;;;7.28;40.28
52291;BME280;39663;45.432;28.050;2023-02-21T02:01:28;100699.29;;;7.60;40.23
52291;BME280;39663;45.432;28.050;2023-02-21T02:02:03;100701.61;;;7.52;41.17
52291;BME280;39663;45.432;28.050;2023-02-21T02:02:45;100702.50;;;7.71;40.60
52291;BME280;39663;45.432;28.050;2023-02-21T02:03:20;100702.46;;;7.88;40.84
52291;BME280;39663;45.432;28.050;2023-02-21T02:03:52;100699.72;;;8.03;39.90
52291;BME280;39663;45.432;28.050;2023-02-21T02:04:23;100705.21;;;7.60;40.29
52291;BME280;39663;45.432;28.050;2023-02-21T02:04:55;100703.90;;;7.57;41.02
52291;BME280;39663;45.432;28.050;2023-02-21T02:05:27;100702.95;;;8.12;40.82
52291;BME280;39663;45.432;28.050;2023-02-21T02:06:03;100701.22;;;8.19;40.37
52291;BME280;39663;45.432;28.050;2023-02-21T02:06:35;100694.54;;;7.92;39.96
52291;BME280;39663;45.432;28.050;2023-02-21T02:07:07;100692.24;;;8.05;41.40
52291;BME280;39663;45.432;28.050;2023-02-21T02:07:39;100690.66;;;8.25;41.11
52291;BME280;39663;45.432;28.050;2023-02-21T02:08:11;100689.01;;;8.18;39.50
52291;BME280;39663;45.432;28.050;2023-02-21T02:08:44;100691.03;;;8.35;41.86
52291;BME280;39663;45.432;28.050;2023-02-21T02:09:17;100686.81;;;8.35;41.62
52291;BME280;39663;45.432;28.050;2023-02-21T02:09:49;100684.55;;;8.05;39.96
52291;BME280;39663;45.432;28.050;2023-02-21T02:10:21;100683.01;;;8.50;41.75
52291;BME280;39663;45.432;28.050;2023-02-21T02:11:00;100680.06;;;8.75;42.57
52291;BME280;39663;45.432;28.050;2023-02-21T02:11:44;100672.41;;;9.02;41.42
52291;BME280;39663;45.432;28.050;2023-02-21T02:12:34;100670.65;;;8.93;39.94
52291;BME280;39663;45.432;28.050;2023-02-21T02:13:54;100670.55;;;9.15;39.11
52291;BME280;39663;45.432;28.050;2023-02-21T02:14:54;100669.65;;;9.09;41.12
52291;BME280;39663;45.432;28.050;2023-02-21T02:15:37;100668.96;;;9.15;41.04
52291;BME280;39663;45.432;28.050;2023-02-21T02:16:17;100665.18;;;9.33;39.87
52291;BME280;39663;45.432;28.050;2023-02-21T02:16:58;100665.99;;;9.17;38.08
52291;BME280;39663;45.432;28.050;2023-02-21T02:17:42;100666.35;;;9.41;38.65
52291;BME280;39663;45.432;28.050;2023-02-21T02:18:34;100667.99;;;9.17;38.71
52291;BME280;39663;45.432;28.050;2023-02-21T02:19:44;100671.44;;;9.61;39.38
52291;BME280;39663;45.432;28.050;2023-02-21T02:20:50;100672.54;;;9.55;39.38
52291;BME280;39663;45.432;28.050;2023-02-21T02:21:44;100668.40;;;9.43;38.11
52291;BME280;39663;45.432;28.050;2023-02-21T02:22:37;100658.50;;;9.50;39.17
52291;BME280;39663;45.432;28.050;2023-02-21T02:23:32;100660.54;;;9.34;38.98
52291;BME280;39663;45.432;28.050;2023-02-21T02:25:07;100657.86;;;9.76;39.21
52291;BME280;39663;45.432;28.050;2023-02-21T02:26:03;100665.02;;;10.00;37.42
52291;BME280;39663;45.432;28.050;2023-02-21T02:27:02;100664.98;;;10.18;38.05
52291;BME280;39663;45.432;28.050;2023-02-21T02:28:25;100657.42;;;9.97;37.72
52291;BME280;39663;45.432;28.050;2023-02-21T02:29:14;100660.55;;;9.75;36.72
52291;BME280;39663;45.432;28.050;2023-02-21T02:30:09;100658.87;;;9.59;39.01
52291;BME280;39663;45.432;28.050;2023-02-21T02:31:17;100664.21;;;9.92;38.17
52291;BME280;39663;45.432;28.050;2023-02-21T02:32:09;100664.31;;;9.86;37.62
52291;BME280;39663;45.432;28.050;2023-02-21T02:33:05;100662.61;;;9.72;38.01
52291;BME280;39663;45.432;28.050;2023-02-21T02:34:04;100656.91;;;10.14;38.22
52291;BME280;39663;45.432;28.050;2023-02-21T02:34:54;100659.89;;;10.16;37.42
52291;BME280;39663;45.432;28.050;2023-02-21T02:35:32;100657.31;;;10.27;37.41
52291;BME280;39663;45.432;28.050;2023-02-21T02:36:06;100658.92;;;10.20;37.26
52291;BME280;39663;45.432;28.050;2023-02-21T02:36:42;100657.21;;;10.27;37.70
52291;BME280;39663;45.432;28.050;2023-02-21T02:37:22;100650.15;;;10.29;36.47
52291;BME280;39663;45.432;28.050;2023-02-21T02:38:02;100651.29;;;10.34;37.19
52291;BME280;39663;45.432;28.050;2023-02-21T02:38:40;100648.82;;;10.34;37.02
52291;BME280;39663;45.432;28.050;2023-02-21T02:39:23;100648.48;;;10.30;37.69
52291;BME280;39663;45.432;28.050;2023-02-21T02:40:04;100649.60;;;10.16;37.17
52291;BME280;39663;45.432;28.050;2023-02-21T02:40:45;100647.70;;;10.27;37.66
52291;BME280;39663;45.432;28.050;2023-02-21T02:41:25;100652.69;;;10.03;37.09
52291;BME280;39663;45.432;28.050;2023-02-21T02:42:03;100646.72;;;10.14;38.18
52291;BME280;39663;45.432;28.050;2023-02-21T02:42:47;100645.56;;;10.06;38.18
52291;BME280;39663;45.432;28.050;2023-02-21T02:43:27;100647.48;;;10.04;38.35
52291;BME280;39663;45.432;28.050;2023-02-21T02:44:03;100640.42;;;10.18;37.26
52291;BME280;39663;45.432;28.050;2023-02-21T02:44:39;100646.29;;;10.72;37.24
52291;BME280;39663;45.432;28.050;2023-02-21T02:45:15;100642.63;;;10.35;35.90
52291;BME280;39663;45.432;28.050;2023-02-21T02:45:55;100648.14;;;10.28;35.98
52291;BME280;39663;45.432;28.050;2023-02-21T02:46:30;100649.12;;;10.14;35.53
52291;BME280;39663;45.432;28.050;2023-02-21T02:47:04;100648.15;;;9.78;36.66
52291;BME280;39663;45.432;28.050;2023-02-21T02:47:38;100646.05;;;9.77;38.46
52291;BME280;39663;45.432;28.050;2023-02-21T02:48:15;100641.35;;;9.90;37.51
52291;BME280;39663;45.432;28.050;2023-02-21T02:48:54;100645.75;;;9.64;38.07
52291;BME280;39663;45.432;28.050;2023-02-21T02:49:31;100645.56;;;9.24;37.97
52291;BME280;39663;45.432;28.050;2023-02-21T02:50:05;100645.23;;;9.56;37.95
52291;BME280;39663;45.432;28.050;2023-02-21T02:50:38;100650.15;;;9.74;38.39
52291;BME280;39663;45.432;28.050;2023-02-21T02:51:13;100651.30;;;9.78;36.35
52291;BME280;39663;45.432;28.050;2023-02-21T02:51:45;100648.39;;;9.90;38.12
52291;BME280;39663;45.432;28.050;2023-02-21T02:52:17;100650.40;;;9.34;35.73
52291;BME280;39663;45.432;28.050;2023-02-21T02:52:50;100648.12;;;9.47;37.96
52291;BME280;39663;45.432;28.050;2023-02-21T02:53:28;100652.92;;;9.49;37.66
52291;BME280;39663;45.432;28.050;2023-02-21T02:54:00;100655.84;;;9.76;37.26
52291;BME280;39663;45.432;28.050;2023-02-21T02:54:32;100657.46;;;9.82;36.07
52291;BME280;39663;45.432;28.050;2023-02-21T02:55:23;100661.59;;;10.02;38.20
52291;BME280;39663;45.432;28.050;2023-02-21T02:55:57;100670.77;;;9.86;37.70
52291;BME280;39663;45.432;28.050;2023-02-21T02:56:29;100672.92;;;10.16;38.24
52291;BME280;39663;45.432;28.050;2023-02-21T02:57:03;100677.33;;;10.04;38.54
52291;BME280;39663;45.432;28.050;2023-02-21T02:57:35;100675.76;;;9.91;37.25
52291;BME280;39663;45.432;28.050;2023-02-21T02:58:09;100675.40;;;10.11;37.28
52291;BME280;39663;45.432;28.050;2023-02-21T02:58:45;100662.40;;;10.04;38.20
52291;BME280;39663;45.432;28.050;2023-02-21T02:59:21;100661.69;;;9.83;37.62
52291;BME280;39663;45.432;28.050;2023-02-21T02:59:55;100657.52;;;10.20;38.42
52291;BME280;39663;45.432;28.050;2023-02-21T03:00:27;100653.64;;;9.97;37.40
52291;BME280;39663;45.432;28.050;2023-02-21T03:01:09;100643.73;;;9.95;37.48
52291;BME280;39663;45.432;28.050;2023-02-21T03:02:16;100638.91;;;10.12;38.98